Time;durP1;ratioP1;P1;durP2;ratioP2;P2;SDS_P1;SDS_P2;PMS_P1;PMS_P2;Temp;Humidity;BMP_temperature;BMP_pressure;BME280_temperature;BME280_humidity;BME280_pressure;Samples;Min_cycle;Max_cycle;Signal;HPM_P1;HPM_P2
2022/05/07 00:02:24;;;;;;;5.15;4.68;;;12.70;71.30;;;;;;617861;233;26868;-76
2022/05/07 00:04:50;;;;;;;5.60;5.00;;;12.70;70.70;;;;;;617960;233;26569;-76
2022/05/07 00:07:17;;;;;;;5.30;4.80;;;12.70;70.60;;;;;;618041;233;26526;-76
2022/05/07 00:09:44;;;;;;;5.37;4.87;;;12.60;70.20;;;;;;617883;233;26563;-76
2022/05/07 00:12:13;;;;;;;5.55;4.87;;;12.70;70.40;;;;;;617777;233;26589;-76
2022/05/07 00:14:40;;;;;;;5.80;4.35;;;12.60;70.20;;;;;;617806;233;26542;-76
2022/05/07 00:19:41;;;;;;;4.93;4.40;;;12.70;70.10;;;;;;617785;233;26799;-76
2022/05/07 00:22:07;;;;;;;5.50;4.65;;;12.70;70.50;;;;;;617726;233;26582;-77
2022/05/07 00:24:34;;;;;;;5.82;4.57;;;12.70;70.20;;;;;;617764;232;26567;-76
2022/05/07 00:27:02;;;;;;;5.32;4.75;;;12.80;70.60;;;;;;617626;233;26922;-76
2022/05/07 00:29:29;;;;;;;5.05;4.55;;;12.80;70.90;;;;;;617475;233;26631;-76
2022/05/07 00:31:56;;;;;;;4.82;4.37;;;12.90;71.70;;;;;;617442;233;26946;-76
2022/05/07 00:34:25;;;;;;;5.12;4.15;;;12.90;70.70;;;;;;617490;233;26551;-76
2022/05/07 00:36:51;;;;;;;5.50;4.87;;;12.90;71.10;;;;;;617437;233;26840;-76
2022/05/07 00:39:18;;;;;;;4.65;4.22;;;13.00;70.90;;;;;;617473;232;26626;-76
2022/05/07 00:41:46;;;;;;;6.37;4.55;;;13.10;71.00;;;;;;617463;233;26831;-76
2022/05/07 00:44:13;;;;;;;4.78;4.25;;;13.10;70.50;;;;;;617420;233;26645;-76
2022/05/07 00:46:40;;;;;;;5.97;4.10;;;13.10;70.70;;;;;;617450;233;26841;-76
2022/05/07 00:49:07;;;;;;;4.43;3.95;;;13.20;70.20;;;;;;617437;233;26595;-76
2022/05/07 00:51:35;;;;;;;3.97;3.67;;;13.20;70.00;;;;;;617434;233;26595;-76
2022/05/07 00:54:05;;;;;;;4.45;4.05;;;13.30;69.30;;;;;;617420;233;26589;-76
2022/05/07 00:56:33;;;;;;;4.40;4.00;;;13.30;69.20;;;;;;617340;233;26611;-76
2022/05/07 00:59:00;;;;;;;4.43;3.95;;;13.40;68.30;;;;;;617351;233;26640;-76
2022/05/07 01:01:27;;;;;;;4.15;3.80;;;13.50;68.50;;;;;;617343;233;26608;-76
2022/05/07 01:03:54;;;;;;;4.50;4.10;;;13.40;68.00;;;;;;618875;231;26854;-76
2022/05/07 01:06:21;;;;;;;4.22;3.83;;;13.40;68.00;;;;;;618564;232;26629;-76
2022/05/07 01:08:50;;;;;;;4.65;4.12;;;13.50;67.90;;;;;;618274;233;26584;-76
2022/05/07 01:11:18;;;;;;;4.97;4.25;;;13.50;68.90;;;;;;618238;233;26550;-76
2022/05/07 01:13:47;;;;;;;4.00;3.55;;;13.50;68.30;;;;;;617997;233;26576;-76
2022/05/07 01:16:14;;;;;;;4.65;3.95;;;13.50;68.80;;;;;;618037;233;26807;-76
2022/05/07 01:18:41;;;;;;;4.15;3.75;;;13.60;68.30;;;;;;618298;233;26598;-76
2022/05/07 01:21:09;;;;;;;5.10;3.92;;;13.60;68.90;;;;;;618248;233;26530;-76
2022/05/07 01:23:36;;;;;;;5.10;3.90;;;13.60;69.00;;;;;;618030;233;26791;-76
2022/05/07 01:26:04;;;;;;;5.40;3.95;;;13.60;68.30;;;;;;618062;233;26536;-76
2022/05/07 01:28:31;;;;;;;4.18;3.78;;;13.60;68.00;;;;;;617823;233;26788;-76
2022/05/07 01:30:58;;;;;;;4.62;3.58;;;13.60;68.20;;;;;;617727;233;26578;-76
2022/05/07 01:33:25;;;;;;;3.65;3.35;;;13.70;69.20;;;;;;617745;232;26814;-76
2022/05/07 01:35:52;;;;;;;4.30;3.90;;;13.70;68.20;;;;;;617718;233;26606;-76
2022/05/07 01:38:20;;;;;;;5.80;4.30;;;13.70;68.30;;;;;;617680;233;26535;-76
2022/05/07 01:40:48;;;;;;;4.53;3.50;;;13.80;67.60;;;;;;617438;233;26611;-76
2022/05/07 01:43:16;;;;;;;4.20;3.80;;;13.80;68.60;;;;;;617480;233;26640;-76
2022/05/07 01:45:44;;;;;;;4.35;3.62;;;13.80;67.40;;;;;;617464;233;26591;-76
2022/05/07 01:48:11;;;;;;;4.60;3.30;;;13.80;67.40;;;;;;617481;233;26622;-76
2022/05/07 01:50:39;;;;;;;3.97;3.37;;;13.90;67.50;;;;;;617487;233;26634;-76
2022/05/07 01:53:07;;;;;;;4.72;3.67;;;13.90;66.90;;;;;;617396;233;27295;-76
2022/05/07 01:55:34;;;;;;;3.15;2.90;;;14.00;67.70;;;;;;617421;233;26637;-76
2022/05/07 01:58:02;;;;;;;5.10;3.17;;;14.00;67.10;;;;;;617473;233;26895;-76
2022/05/07 02:00:30;;;;;;;4.03;3.72;;;14.00;67.10;;;;;;617486;233;26617;-77
2022/05/07 02:02:57;;;;;;;3.75;3.45;;;14.00;66.60;;;;;;617445;233;26601;-76
2022/05/07 02:05:25;;;;;;;3.83;3.50;;;14.00;67.10;;;;;;617353;233;26618;-76
2022/05/07 02:07:53;;;;;;;3.70;3.40;;;14.00;68.00;;;;;;617457;233;26638;-78
2022/05/07 02:10:20;;;;;;;3.50;3.20;;;14.00;67.60;;;;;;617443;233;26830;-76
2022/05/07 02:12:47;;;;;;;3.37;3.10;;;14.00;67.50;;;;;;617425;233;26660;-76
2022/05/07 02:15:15;;;;;;;3.58;3.28;;;14.00;67.30;;;;;;618781;231;26657;-76
2022/05/07 02:17:42;;;;;;;3.37;3.12;;;14.00;68.40;;;;;;618696;232;26608;-76
2022/05/07 02:20:09;;;;;;;3.28;2.90;;;14.00;66.20;;;;;;618417;232;26801;-76
2022/05/07 02:22:37;;;;;;;3.92;3.10;;;14.00;66.60;;;;;;618322;233;26828;-77
2022/05/07 02:25:05;;;;;;;3.22;2.87;;;14.00;67.20;;;;;;617920;233;26546;-76
2022/05/07 02:27:33;;;;;;;3.60;3.30;;;14.00;67.10;;;;;;618055;232;26566;-77
2022/05/07 02:30:01;;;;;;;3.60;3.30;;;14.00;66.20;;;;;;618036;233;26618;-76
2022/05/07 02:32:29;;;;;;;3.05;2.75;;;14.00;67.70;;;;;;617900;233;26582;-76
2022/05/07 02:34:56;;;;;;;3.47;3.10;;;14.10;67.80;;;;;;617725;233;26815;-76
2022/05/07 02:37:23;;;;;;;3.40;3.10;;;14.10;66.90;;;;;;617711;233;26597;-76
2022/05/07 02:39:50;;;;;;;3.20;2.90;;;14.10;66.90;;;;;;617720;233;26799;-76
2022/05/07 02:44:50;;;;;;;3.58;3.28;;;14.10;65.20;;;;;;617749;233;26559;-76
2022/05/07 02:47:18;;;;;;;3.22;2.72;;;14.10;66.00;;;;;;617791;233;26803;-76
2022/05/07 02:49:45;;;;;;;3.87;3.10;;;14.10;65.70;;;;;;617700;233;26575;-76
2022/05/07 02:52:13;;;;;;;2.92;2.72;;;14.10;65.30;;;;;;617391;233;27303;-76
2022/05/07 02:54:40;;;;;;;2.95;2.75;;;14.10;65.30;;;;;;617450;233;26942;-76
2022/05/07 02:57:07;;;;;;;2.87;2.67;;;14.10;65.10;;;;;;617450;233;26634;-76
2022/05/07 02:59:34;;;;;;;2.72;2.53;;;14.10;65.60;;;;;;617461;233;26940;-76
2022/05/07 03:02:01;;;;;;;2.95;2.75;;;14.00;66.40;;;;;;617432;232;26605;-76
2022/05/07 03:04:29;;;;;;;3.80;2.55;;;14.00;66.20;;;;;;617469;233;26840;-76
2022/05/07 03:06:56;;;;;;;2.50;2.30;;;14.00;66.20;;;;;;617371;233;26573;-76
2022/05/07 03:09:23;;;;;;;2.92;2.75;;;14.00;67.10;;;;;;617366;233;26631;-76
2022/05/07 03:11:51;;;;;;;3.15;2.85;;;14.00;66.90;;;;;;617330;233;26623;-76
2022/05/07 03:14:20;;;;;;;2.90;2.70;;;13.90;66.40;;;;;;617449;233;26692;-76
2022/05/07 03:16:48;;;;;;;2.70;2.50;;;13.90;66.60;;;;;;617429;233;26626;-76
2022/05/07 03:19:16;;;;;;;2.75;2.55;;;13.90;66.60;;;;;;617294;233;26610;-76
2022/05/07 03:21:43;;;;;;;3.12;2.83;;;13.90;66.60;;;;;;617281;233;26658;-76
2022/05/07 03:24:11;;;;;;;3.33;2.92;;;13.80;67.40;;;;;;617378;233;26586;-75
2022/05/07 03:26:38;;;;;;;2.95;2.65;;;13.70;67.50;;;;;;618655;230;26844;-76
2022/05/07 03:29:05;;;;;;;2.85;2.65;;;13.60;67.80;;;;;;618741;232;26610;-75
2022/05/07 03:31:32;;;;;;;2.60;2.40;;;13.60;67.60;;;;;;618323;232;26840;-75
2022/05/07 03:33:59;;;;;;;3.60;2.62;;;13.50;68.10;;;;;;618341;233;26567;-75
2022/05/07 03:36:27;;;;;;;2.75;2.55;;;13.40;68.30;;;;;;618035;233;26820;-75
2022/05/07 03:38:54;;;;;;;2.90;2.70;;;13.30;69.00;;;;;;618037;233;26557;-75
2022/05/07 03:41:21;;;;;;;2.70;2.50;;;13.20;69.10;;;;;;618009;233;26811;-75
2022/05/07 03:43:48;;;;;;;2.55;2.45;;;13.10;69.30;;;;;;617937;233;26590;-75
2022/05/07 03:46:15;;;;;;;2.60;2.30;;;13.00;69.80;;;;;;617748;232;26562;-75
2022/05/07 03:48:43;;;;;;;2.80;2.55;;;13.00;70.10;;;;;;617790;233;26537;-75
2022/05/07 03:51:11;;;;;;;3.03;2.70;;;13.00;70.10;;;;;;617801;233;26569;-76
2022/05/07 03:53:39;;;;;;;2.30;2.20;;;13.00;69.90;;;;;;617707;233;26591;-75
2022/05/07 03:56:06;;;;;;;2.65;2.45;;;13.00;69.90;;;;;;617780;232;26562;-75
2022/05/07 03:58:34;;;;;;;2.75;2.55;;;13.00;71.50;;;;;;617810;233;26547;-75
2022/05/07 04:01:01;;;;;;;2.47;2.37;;;13.00;71.20;;;;;;617765;233;26783;-76
2022/05/07 04:03:28;;;;;;;2.70;2.42;;;13.00;70.90;;;;;;617420;233;26614;-76
2022/05/07 04:05:56;;;;;;;2.40;2.30;;;13.10;72.00;;;;;;617448;233;27247;-76
2022/05/07 04:08:23;;;;;;;2.70;2.50;;;13.10;72.00;;;;;;617316;233;26784;-75
2022/05/07 04:10:51;;;;;;;2.33;2.22;;;13.10;71.10;;;;;;617452;233;26596;-76
2022/05/07 04:13:18;;;;;;;2.30;2.20;;;13.10;70.60;;;;;;617408;233;27312;-76
2022/05/07 04:15:45;;;;;;;2.90;2.70;;;13.10;70.40;;;;;;617477;233;26604;-76
2022/05/07 04:18:13;;;;;;;2.40;2.30;;;13.20;70.40;;;;;;617460;233;27505;-76
2022/05/07 04:20:40;;;;;;;2.67;2.47;;;13.20;70.40;;;;;;617435;233;27250;-76
2022/05/07 04:23:07;;;;;;;2.50;2.30;;;13.20;71.10;;;;;;617313;233;26639;-76
2022/05/07 04:25:34;;;;;;;2.80;2.60;;;13.20;70.00;;;;;;617361;233;27321;-76
2022/05/07 04:28:02;;;;;;;2.60;2.40;;;13.30;70.80;;;;;;617412;233;26594;-76
2022/05/07 04:30:29;;;;;;;2.72;2.30;;;13.20;70.40;;;;;;617482;233;26840;-76
2022/05/07 04:32:57;;;;;;;3.40;2.67;;;13.20;70.80;;;;;;617386;233;26647;-76
2022/05/07 04:35:25;;;;;;;1.92;1.83;;;13.30;70.40;;;;;;617429;233;26599;-75
2022/05/07 04:37:53;;;;;;;2.40;2.30;;;13.30;70.50;;;;;;618452;230;26581;-76
2022/05/07 04:40:21;;;;;;;2.60;2.40;;;13.40;70.20;;;;;;618738;232;26589;-76
2022/05/07 04:42:48;;;;;;;2.72;2.37;;;13.40;70.20;;;;;;618373;232;26606;-76
2022/05/07 04:45:15;;;;;;;2.65;2.45;;;13.50;69.90;;;;;;619578;229;26555;-76
2022/05/07 04:47:42;;;;;;;2.75;2.12;;;13.50;70.90;;;;;;619533;229;26843;-77
2022/05/07 04:50:11;;;;;;;2.92;2.42;;;13.60;70.00;;;;;;617976;233;26561;-76
2022/05/07 04:52:37;;;;;;;2.45;2.25;;;13.60;69.60;;;;;;618352;233;26571;-76
2022/05/07 04:55:04;;;;;;;3.58;2.20;;;13.70;70.90;;;;;;618312;233;26589;-76
2022/05/07 04:57:32;;;;;;;2.65;2.45;;;13.70;70.50;;;;;;618107;233;26541;-76
2022/05/07 04:59:59;;;;;;;2.62;2.42;;;13.70;70.10;;;;;;618104;233;26524;-77
2022/05/07 05:02:26;;;;;;;4.62;2.30;;;13.80;70.00;;;;;;617909;229;26574;-76
2022/05/07 05:04:53;;;;;;;2.67;2.47;;;13.90;69.30;;;;;;625239;229;26580;-73
2022/05/07 05:07:20;;;;;;;3.42;2.47;;;14.00;69.60;;;;;;623048;229;26811;-73
2022/05/07 05:09:48;;;;;;;3.17;2.47;;;14.00;69.10;;;;;;617705;230;26578;-73
2022/05/07 05:12:17;;;;;;;4.12;2.53;;;14.10;69.30;;;;;;622107;229;26796;-73
2022/05/07 05:17:16;;;;;;;2.55;2.35;;;14.00;69.20;;;;;;618786;230;26623;-73
2022/05/07 05:19:44;;;;;;;5.18;2.70;;;14.00;68.20;;;;;;625227;230;26523;-72
2022/05/07 05:22:12;;;;;;;5.03;2.22;;;14.10;68.50;;;;;;621925;230;26601;-72
2022/05/07 05:24:39;;;;;;;4.00;2.30;;;14.10;68.50;;;;;;623370;230;26546;-73
2022/05/07 05:27:06;;;;;;;3.05;2.75;;;14.30;68.00;;;;;;626256;230;26554;-72
2022/05/07 05:29:34;;;;;;;2.05;1.95;;;14.40;68.30;;;;;;625978;230;26892;-72
2022/05/07 05:32:01;;;;;;;2.58;2.40;;;14.50;66.90;;;;;;621820;230;26589;-73
2022/05/07 05:34:28;;;;;;;2.70;2.50;;;14.60;66.60;;;;;;622652;230;26873;-73
2022/05/07 05:36:55;;;;;;;2.50;2.30;;;14.70;66.40;;;;;;625065;230;26555;-73
2022/05/07 05:39:22;;;;;;;3.25;2.33;;;14.80;66.80;;;;;;624965;230;26831;-64
2022/05/07 05:41:50;;;;;;;2.80;2.37;;;14.90;65.80;;;;;;620300;230;26622;-64
2022/05/07 05:44:17;;;;;;;2.45;2.25;;;15.00;65.90;;;;;;621645;230;26845;-64
2022/05/07 05:46:44;;;;;;;3.85;2.40;;;15.10;65.70;;;;;;623689;230;26550;-65
2022/05/07 05:49:11;;;;;;;2.45;2.28;;;15.10;65.30;;;;;;625343;228;27335;-65
2022/05/07 05:51:39;;;;;;;2.33;2.12;;;15.10;65.90;;;;;;621172;228;26555;-65
2022/05/07 05:54:06;;;;;;;2.95;2.53;;;15.20;65.60;;;;;;623335;229;26555;-65
2022/05/07 05:56:34;;;;;;;2.45;2.25;;;15.30;65.40;;;;;;618299;233;26551;-65
2022/05/07 05:59:02;;;;;;;2.92;2.30;;;15.40;66.20;;;;;;625358;229;26600;-65
2022/05/07 06:01:30;;;;;;;2.30;2.10;;;15.50;64.80;;;;;;619651;229;26553;-64
2022/05/07 06:03:57;;;;;;;2.25;2.15;;;15.50;64.70;;;;;;626253;228;26625;-64
2022/05/07 06:06:25;;;;;;;2.55;2.20;;;15.60;64.20;;;;;;625386;230;26823;-64
2022/05/07 06:08:53;;;;;;;3.10;2.20;;;15.90;64.30;;;;;;625100;228;26556;-64
2022/05/07 06:11:20;;;;;;;2.37;2.17;;;16.10;63.20;;;;;;625067;229;26540;-64
2022/05/07 06:13:48;;;;;;;2.30;2.20;;;16.20;62.50;;;;;;625600;229;26605;-64
2022/05/07 06:16:17;;;;;;;2.45;2.25;;;16.30;62.20;;;;;;626572;229;26601;-64
2022/05/07 06:18:44;;;;;;;2.33;2.22;;;16.30;62.20;;;;;;625508;229;26563;-64
2022/05/07 06:21:11;;;;;;;2.15;2.05;;;16.50;62.40;;;;;;625184;229;26555;-64
2022/05/07 06:23:38;;;;;;;2.00;1.90;;;16.60;62.30;;;;;;626490;229;26815;-64
2022/05/07 06:28:38;;;;;;;2.72;2.30;;;16.90;61.50;;;;;;626239;230;26562;-64
2022/05/07 06:31:05;;;;;;;3.33;2.15;;;17.10;61.30;;;;;;618923;230;27180;-64
2022/05/07 06:33:33;;;;;;;2.00;1.90;;;17.30;60.30;;;;;;626158;230;26590;-64
2022/05/07 06:36:01;;;;;;;2.08;1.98;;;17.20;60.10;;;;;;622599;229;26546;-65
2022/05/07 06:38:28;;;;;;;2.10;2.00;;;17.40;59.90;;;;;;622675;230;26779;-64
2022/05/07 06:40:56;;;;;;;2.50;2.30;;;17.70;60.00;;;;;;619349;229;26598;-65
2022/05/07 06:43:23;;;;;;;2.78;1.80;;;18.00;59.50;;;;;;618323;230;26999;-65
2022/05/07 06:45:50;;;;;;;4.22;2.03;;;18.10;59.00;;;;;;625295;229;26563;-65
2022/05/07 06:48:17;;;;;;;2.25;2.08;;;18.30;58.70;;;;;;621640;230;26822;-64
2022/05/07 06:50:44;;;;;;;2.15;1.87;;;18.20;58.70;;;;;;623634;230;26555;-64
2022/05/07 06:53:11;;;;;;;2.20;2.00;;;18.20;58.40;;;;;;618309;230;26647;-64
2022/05/07 06:56:11;;;;;;;2.50;2.30;;;17.90;58.80;;;;;;619610;230;26619;-65
2022/05/07 06:58:22;;;;;;;2.10;2.00;;;17.90;58.80;;;;;;625858;230;26582;-65
2022/05/07 07:00:49;;;;;;;1.77;1.67;;;17.90;59.10;;;;;;626941;227;26837;-65
2022/05/07 07:03:16;;;;;;;2.50;2.20;;;18.20;58.70;;;;;;620063;228;26630;-65
2022/05/07 07:05:43;;;;;;;2.08;1.98;;;18.40;58.80;;;;;;627272;228;26879;-65
2022/05/07 07:08:12;;;;;;;2.10;2.00;;;18.60;58.20;;;;;;622985;229;26527;-65
2022/05/07 07:10:39;;;;;;;2.47;2.10;;;18.40;57.60;;;;;;623800;229;26624;-64
2022/05/07 07:13:07;;;;;;;2.30;2.10;;;18.30;58.20;;;;;;625227;229;26640;-65
2022/05/07 07:15:34;;;;;;;2.08;1.80;;;18.30;57.70;;;;;;619901;229;26562;-65
2022/05/07 07:18:04;;;;;;;2.33;2.20;;;18.30;57.50;;;;;;626099;228;26596;-65
2022/05/07 07:20:29;;;;;;;1.90;1.80;;;18.50;57.00;;;;;;625221;230;26781;-65
2022/05/07 07:22:55;;;;;;;2.65;2.45;;;18.60;57.20;;;;;;619620;230;26571;-65
2022/05/07 07:25:23;;;;;;;1.85;1.60;;;18.90;56.40;;;;;;625496;229;26774;-65
2022/05/07 07:27:50;;;;;;;2.30;2.10;;;19.20;55.70;;;;;;626440;229;26523;-65
2022/05/07 07:30:17;;;;;;;2.40;2.20;;;19.50;55.30;;;;;;621625;230;26773;-65
2022/05/07 07:32:44;;;;;;;2.30;2.20;;;19.60;54.20;;;;;;623048;227;26576;-65
2022/05/07 07:35:11;;;;;;;2.00;1.90;;;19.90;54.70;;;;;;626343;229;27193;-65
2022/05/07 07:37:39;;;;;;;2.33;2.15;;;19.90;54.50;;;;;;626216;229;26566;-65
2022/05/07 07:40:07;;;;;;;2.00;1.90;;;19.80;54.30;;;;;;622268;230;26615;-65
2022/05/07 07:42:34;;;;;;;2.35;1.95;;;20.00;54.20;;;;;;617312;233;26656;-65
2022/05/07 07:50:07;;;;;;;1.60;1.50;;;20.10;54.40;;;;;;620793;230;26952;-64
2022/05/07 07:52:35;;;;;;;2.03;1.80;;;20.20;54.00;;;;;;624702;230;26575;-64
2022/05/07 07:55:02;;;;;;;2.15;2.03;;;20.30;53.90;;;;;;625931;229;26554;-64
2022/05/07 07:57:29;;;;;;;2.20;2.00;;;20.20;53.60;;;;;;625081;229;26519;-64
2022/05/07 07:59:56;;;;;;;3.08;2.42;;;20.10;54.20;;;;;;625637;230;26800;-64
2022/05/07 08:02:23;;;;;;;2.42;2.20;;;20.20;53.70;;;;;;624789;227;26611;-64
2022/05/07 08:04:54;;;;;;;1.92;1.65;;;20.30;53.40;;;;;;625813;230;26803;-64
2022/05/07 08:12:23;;;;;;;3.03;2.00;;;20.50;53.20;;;;;;627137;226;26633;-65
2022/05/07 08:14:51;;;;;;;2.00;1.90;;;20.80;52.70;;;;;;626565;229;26634;-65
2022/05/07 08:17:19;;;;;;;2.40;2.17;;;20.70;52.00;;;;;;627184;229;26559;-65
2022/05/07 08:19:47;;;;;;;2.37;1.98;;;20.70;52.00;;;;;;627239;229;26563;-65
2022/05/07 08:22:14;;;;;;;2.00;1.90;;;20.60;51.90;;;;;;626952;229;26580;-65
2022/05/07 08:24:41;;;;;;;2.35;2.15;;;20.80;52.20;;;;;;626852;229;27496;-65
2022/05/07 08:27:08;;;;;;;2.17;1.98;;;20.60;51.70;;;;;;626910;229;26535;-65
2022/05/07 08:29:35;;;;;;;2.83;2.25;;;20.40;52.00;;;;;;626819;229;26847;-65
2022/05/07 08:32:03;;;;;;;2.65;2.12;;;20.50;52.10;;;;;;626555;229;26582;-65
2022/05/07 08:34:30;;;;;;;2.03;1.87;;;20.40;52.10;;;;;;626554;229;26804;-65
2022/05/07 08:36:57;;;;;;;2.05;1.95;;;20.40;52.60;;;;;;626576;229;26548;-65
2022/05/07 08:39:25;;;;;;;3.47;2.08;;;20.40;52.50;;;;;;626533;229;26808;-64
2022/05/07 08:41:52;;;;;;;2.17;2.03;;;20.20;52.70;;;;;;626491;229;26853;-64
2022/05/07 08:44:19;;;;;;;2.12;2.03;;;20.40;52.60;;;;;;626612;229;26558;-65
2022/05/07 08:46:47;;;;;;;2.62;2.33;;;20.50;52.40;;;;;;626574;229;26796;-64
2022/05/07 08:49:15;;;;;;;2.17;2.08;;;20.30;51.60;;;;;;626275;229;26559;-64
2022/05/07 08:51:43;;;;;;;2.47;1.85;;;20.30;52.00;;;;;;626194;228;26551;-65
2022/05/07 08:54:12;;;;;;;2.30;2.10;;;20.20;52.10;;;;;;626278;228;26558;-65
2022/05/07 08:56:38;;;;;;;2.30;2.10;;;20.10;52.40;;;;;;626156;229;26626;-64
2022/05/07 08:59:06;;;;;;;2.33;2.12;;;20.10;52.40;;;;;;626232;230;26564;-65
2022/05/07 09:01:33;;;;;;;2.05;1.80;;;20.20;52.60;;;;;;626214;229;26536;-64
2022/05/07 09:04:01;;;;;;;2.10;2.00;;;20.50;52.40;;;;;;626279;230;26574;-64
2022/05/07 09:06:29;;;;;;;3.53;2.20;;;20.70;52.10;;;;;;625997;230;26574;-64
2022/05/07 09:08:56;;;;;;;2.92;2.20;;;20.90;52.10;;;;;;626204;230;26543;-64
2022/05/07 09:11:23;;;;;;;2.10;1.90;;;21.00;51.80;;;;;;626138;230;26745;-65
2022/05/07 09:13:59;;;;;;;2.72;1.65;;;20.90;51.30;;;;;;626231;230;26590;-64
2022/05/07 09:16:26;;;;;;;3.62;2.22;;;20.80;51.40;;;;;;626156;230;26797;-65
2022/05/07 09:18:53;;;;;;;2.05;1.95;;;20.90;51.20;;;;;;625762;230;26598;-65
2022/05/07 09:21:24;;;;;;;2.35;2.10;;;20.90;51.40;;;;;;626077;230;26646;-65
2022/05/07 09:23:48;;;;;;;2.20;2.00;;;21.00;51.20;;;;;;626861;227;26585;-65
2022/05/07 09:26:24;;;;;;;3.17;2.10;;;21.10;51.40;;;;;;627064;229;26524;-65
2022/05/07 09:28:52;;;;;;;2.65;2.17;;;21.00;51.20;;;;;;627019;229;26516;-65
2022/05/07 09:31:25;;;;;;;2.25;2.05;;;21.00;51.40;;;;;;627113;229;26544;-65
2022/05/07 09:33:53;;;;;;;2.62;2.37;;;21.10;51.80;;;;;;626083;229;26594;-65
2022/05/07 09:36:21;;;;;;;2.17;2.00;;;21.10;51.80;;;;;;626823;229;26865;-65
2022/05/07 09:38:49;;;;;;;2.20;2.10;;;21.40;51.90;;;;;;626763;229;26658;-64
2022/05/07 09:41:19;;;;;;;2.17;2.00;;;21.40;51.90;;;;;;626409;227;26644;-64
2022/05/07 09:43:46;;;;;;;3.40;2.08;;;21.50;51.20;;;;;;626541;226;26582;-64
2022/05/07 09:46:13;;;;;;;2.97;2.05;;;21.50;51.30;;;;;;626405;229;26803;-64
2022/05/07 09:48:40;;;;;;;1.65;1.58;;;21.70;51.20;;;;;;626792;229;26534;-64
2022/05/07 09:51:07;;;;;;;2.10;1.90;;;21.90;51.50;;;;;;626936;229;26741;-64
2022/05/07 09:58:40;;;;;;;1.98;1.83;;;22.10;50.90;;;;;;626551;229;26563;-65
2022/05/07 10:01:31;;;;;;;3.80;2.00;;;22.30;50.50;;;;;;626225;229;26553;-65
2022/05/07 10:04:28;;;;;;;2.30;2.10;;;22.30;50.50;;;;;;625689;230;26579;-65
2022/05/07 10:07:15;;;;;;;2.15;1.90;;;22.90;50.70;;;;;;622270;230;26897;-65
2022/05/07 10:09:44;;;;;;;3.50;2.30;;;22.80;50.10;;;;;;619149;230;26622;-65
2022/05/07 10:12:12;;;;;;;2.12;2.00;;;22.30;50.10;;;;;;625850;230;26581;-65
2022/05/07 10:14:39;;;;;;;3.30;2.20;;;22.10;50.60;;;;;;626083;230;26611;-65
2022/05/07 10:17:10;;;;;;;2.12;1.98;;;21.80;51.10;;;;;;626201;230;26859;-65
2022/05/07 10:19:40;;;;;;;2.33;2.10;;;21.70;51.30;;;;;;625989;230;26617;-65
2022/05/07 10:22:15;;;;;;;2.22;2.10;;;21.70;51.40;;;;;;626010;230;26590;-65
2022/05/07 10:24:41;;;;;;;2.92;2.20;;;21.70;51.30;;;;;;626018;229;26989;-65
2022/05/07 10:27:23;;;;;;;2.28;2.08;;;21.80;51.30;;;;;;626225;230;26560;-65
2022/05/07 10:29:51;;;;;;;2.17;1.98;;;22.50;50.60;;;;;;625730;230;26578;-65
2022/05/07 10:32:19;;;;;;;2.58;2.00;;;22.50;50.60;;;;;;626195;230;26576;-65
2022/05/07 10:34:50;;;;;;;1.98;1.87;;;22.90;50.10;;;;;;626424;227;26578;-65
2022/05/07 10:37:17;;;;;;;2.28;2.08;;;23.50;50.00;;;;;;627814;229;26833;-65
2022/05/07 10:39:50;;;;;;;1.98;1.87;;;23.70;48.90;;;;;;627339;229;26600;-65
2022/05/07 10:42:18;;;;;;;2.67;2.45;;;23.70;48.90;;;;;;627080;229;26640;-65
2022/05/07 10:44:44;;;;;;;2.40;2.20;;;23.80;48.90;;;;;;626975;229;26792;-65
2022/05/07 10:47:11;;;;;;;2.05;1.95;;;24.00;49.60;;;;;;615526;229;26649;-66
2022/05/07 10:49:48;;;;;;;2.78;2.30;;;24.20;49.30;;;;;;626903;229;26621;-65
2022/05/07 10:52:16;;;;;;;2.47;2.28;;;23.50;49.70;;;;;;626722;227;26631;-65
2022/05/07 10:54:44;;;;;;;2.05;1.90;;;23.40;49.80;;;;;;626219;229;26562;-65
2022/05/07 10:57:12;;;;;;;2.78;2.20;;;23.10;49.50;;;;;;626576;229;26554;-64
2022/05/07 10:59:40;;;;;;;2.17;1.90;;;22.80;50.10;;;;;;626506;228;26574;-65
2022/05/07 11:02:10;;;;;;;2.25;2.15;;;22.70;50.00;;;;;;626323;229;26582;-64
2022/05/07 11:04:42;;;;;;;2.87;2.17;;;23.00;50.50;;;;;;626401;229;26578;-65
2022/05/07 11:07:09;;;;;;;3.50;2.30;;;23.00;50.50;;;;;;626888;229;26532;-64
2022/05/07 11:09:37;;;;;;;2.55;1.90;;;22.90;50.90;;;;;;626926;228;26782;-65
2022/05/07 11:12:06;;;;;;;2.30;2.20;;;23.10;50.90;;;;;;626737;229;26562;-65
2022/05/07 11:14:35;;;;;;;2.17;2.03;;;23.10;50.30;;;;;;626621;230;26819;-65
2022/05/07 11:17:01;;;;;;;2.22;1.98;;;22.80;50.80;;;;;;626289;230;26540;-68
2022/05/07 11:19:33;;;;;;;4.45;2.03;;;22.50;50.70;;;;;;626238;228;26558;-65
2022/05/07 11:22:00;;;;;;;2.05;1.90;;;22.80;51.40;;;;;;625853;230;26626;-65
2022/05/07 11:24:27;;;;;;;2.22;2.03;;;22.70;51.10;;;;;;626231;230;26782;-65
2022/05/07 11:26:54;;;;;;;2.25;2.05;;;23.00;50.90;;;;;;626226;230;26573;-65
2022/05/07 11:29:22;;;;;;;2.83;2.28;;;23.00;50.70;;;;;;626209;230;26817;-65
2022/05/07 11:31:56;;;;;;;2.22;2.10;;;23.20;50.70;;;;;;626150;227;26630;-65
2022/05/07 11:34:28;;;;;;;2.12;2.00;;;22.90;50.90;;;;;;626195;230;26808;-65
2022/05/07 11:36:55;;;;;;;5.12;2.08;;;22.60;51.40;;;;;;624118;230;26809;-65
2022/05/07 11:39:24;;;;;;;3.85;2.12;;;22.30;51.80;;;;;;622484;230;26643;-65
2022/05/07 11:41:52;;;;;;;4.45;2.30;;;22.00;52.70;;;;;;622223;230;26936;-66
2022/05/07 11:46:56;;;;;;;2.58;2.22;;;21.90;52.80;;;;;;624967;228;26823;-65
2022/05/07 11:49:28;;;;;;;2.72;2.08;;;22.00;52.10;;;;;;624796;229;26546;-65
2022/05/07 11:52:04;;;;;;;2.87;2.35;;;22.30;52.00;;;;;;623143;229;26601;-65
2022/05/07 11:54:31;;;;;;;4.53;2.33;;;22.30;52.00;;;;;;623358;227;26562;-65
2022/05/07 11:56:59;;;;;;;2.22;1.95;;;22.50;52.10;;;;;;623993;229;26621;-65
2022/05/07 11:59:27;;;;;;;4.32;2.28;;;22.70;52.00;;;;;;623941;228;26601;-65
2022/05/07 12:01:55;;;;;;;2.60;2.40;;;22.70;51.50;;;;;;623728;229;26637;-64
2022/05/07 12:04:21;;;;;;;1.98;1.85;;;23.10;51.30;;;;;;625551;229;26621;-65
2022/05/07 12:06:55;;;;;;;3.83;2.30;;;23.20;51.00;;;;;;623278;229;26820;-65
2022/05/07 12:09:21;;;;;;;3.05;2.75;;;23.40;50.40;;;;;;622836;229;26554;-65
2022/05/07 12:11:49;;;;;;;3.45;2.58;;;23.60;50.20;;;;;;624524;228;26610;-65
2022/05/07 12:14:15;;;;;;;3.03;2.55;;;23.60;50.60;;;;;;621574;229;26534;-65
2022/05/07 12:19:17;;;;;;;3.25;2.03;;;23.80;49.90;;;;;;622506;229;26784;-65
2022/05/07 12:32:01;;;;;;;2.90;2.33;;;24.00;49.40;;;;;;623958;230;26640;-66
2022/05/07 12:34:28;;;;;;;2.35;2.15;;;24.80;48.90;;;;;;622517;230;26820;-66
2022/05/07 12:36:55;;;;;;;2.58;2.37;;;24.80;48.90;;;;;;622438;230;26832;-66
2022/05/07 12:39:22;;;;;;;2.33;2.08;;;25.50;48.40;;;;;;624135;230;26558;-67
2022/05/07 12:41:50;;;;;;;3.00;2.25;;;25.70;48.90;;;;;;623011;230;26819;-66
2022/05/07 12:44:18;;;;;;;2.62;2.22;;;25.90;48.20;;;;;;624270;230;26784;-67
2022/05/07 12:46:45;;;;;;;4.40;2.08;;;25.70;47.40;;;;;;622165;230;26621;-66
2022/05/07 12:49:14;;;;;;;2.20;2.00;;;25.70;47.20;;;;;;621822;228;26618;-68
2022/05/07 12:51:41;;;;;;;2.25;2.05;;;25.70;47.20;;;;;;614112;230;26646;-68
2022/05/07 12:54:09;;;;;;;2.78;2.40;;;26.20;47.20;;;;;;623635;230;27097;-68
2022/05/07 12:56:37;;;;;;;2.40;2.00;;;27.30;46.40;;;;;;622957;230;26550;-68
2022/05/07 12:59:05;;;;;;;2.85;1.90;;;27.90;45.70;;;;;;623703;229;26636;-67
2022/05/07 13:01:34;;;;;;;2.28;2.10;;;27.80;46.30;;;;;;624569;226;26610;-67
2022/05/07 13:04:01;;;;;;;3.03;2.17;;;27.80;46.30;;;;;;623085;229;26797;-67
2022/05/07 13:06:28;;;;;;;2.42;2.25;;;27.60;46.40;;;;;;624602;229;26583;-66
2022/05/07 13:08:59;;;;;;;3.62;2.33;;;27.60;46.30;;;;;;624113;229;26631;-66
2022/05/07 13:11:24;;;;;;;2.20;2.08;;;27.60;45.70;;;;;;622188;229;26622;-66
2022/05/07 13:13:51;;;;;;;2.70;2.50;;;27.50;45.60;;;;;;621940;226;26662;-66
2022/05/07 13:16:19;;;;;;;3.03;2.47;;;28.00;45.40;;;;;;624377;229;26578;-67
2022/05/07 13:18:46;;;;;;;2.55;2.40;;;28.20;45.90;;;;;;624652;229;26806;-67
2022/05/07 13:21:13;;;;;;;5.12;2.60;;;28.90;45.00;;;;;;622851;229;26569;-68
2022/05/07 13:23:41;;;;;;;3.12;2.65;;;28.70;44.80;;;;;;622948;227;26781;-69
2022/05/07 13:26:09;;;;;;;22.65;6.53;;;27.20;45.50;;;;;;622286;229;26552;-70
2022/05/07 13:28:37;;;;;;;82.72;17.52;;;27.30;46.30;;;;;;622431;229;26567;-68
2022/05/07 13:31:07;;;;;;;79.05;17.08;;;27.50;46.20;;;;;;624051;229;26554;-69